This is the latest recevied weather packets stored in our database for station/object K7GFH-13. If no packets are shown the sender has not sent any weather packets the latest 1 day(s).
| Time | Temp. | Humidity | Pressure | Rain* | Wind** | Luminosity | Snow |
|---|---|---|---|---|---|---|---|
| 1778039414 | 15° C | 83% | 1017.9 hPa | 0 mm | - | 0 W/m² | - |
| 1778038512 | 15° C | 81% | 1017.7 hPa | 0 mm | - | 0 W/m² | - |
| 1778035803 | 16.11° C | 77% | 1017.5 hPa | 0 mm | - | 15 W/m² | - |
| 1778034898 | 15.56° C | 75% | 1017.3 hPa | 0 mm | - | 22 W/m² | - |
| 1778033996 | 15.56° C | 75% | 1017.4 hPa | 0 mm | - | 26 W/m² | - |
| 1778033094 | 16.11° C | 74% | 1017.3 hPa | 0 mm | - | 35 W/m² | - |
| 1778031289 | 16.11° C | 74% | 1017.3 hPa | 0 mm | - | 54 W/m² | - |
| 1778030384 | 16.11° C | 75% | 1017.3 hPa | 0 mm | - | 62 W/m² | - |
| 1778029483 | 15.56° C | 75% | 1017.4 hPa | 0 mm | - | 64 W/m² | - |
| 1778028584 | 16.11° C | 75% | 1017.4 hPa | 0 mm | - | 65 W/m² | - |
| 1778026780 | 16.11° C | 75% | 1017.3 hPa | 0 mm | - | 78 W/m² | - |
| 1778022269 | 16.67° C | 73% | 1017.7 hPa | 0 mm | - | 184 W/m² | - |
| 1778021370 | 16.11° C | 73% | 1017.9 hPa | 0 mm | - | 198 W/m² | - |
| 1778015054 | 16.67° C | 70% | 1018.2 hPa | 0 mm | - | 617 W/m² | - |
| 1778006029 | 13.33° C | 85% | 1018.8 hPa | 0 mm | - | 223 W/m² | - |
| 1778005125 | 13.33° C | 84% | 1018.7 hPa | 0 mm | - | 182 W/m² | - |
| 1778003317 | 13.33° C | 85% | 1018.6 hPa | 0 mm | - | 242 W/m² | - |
| 1777999708 | 11.67° C | 91% | 1018.4 hPa | 0 mm | - | 131 W/m² | - |
| 1777998808 | 11.67° C | 91% | 1018.2 hPa | 0 mm | - | 81 W/m² | - |
| 1777997905 | 11.67° C | 92% | 1018.2 hPa | 0 mm | - | 68 W/m² | - |
* Rain latest hour (hover to see other rain measurements)
** Current wind speed in m/s (hover to see current wind gust speed)